Hollywood Hills, South Carolina
Current Conditions -  °F | °C
As of 12:53 PM on Sunday 21 Dec 2014 (Local Time) from KCUB Reporting Station
Clear Clear  
Wind Chill: 53°   Ceiling: Unl
Heat Index: 53°   Visibility: 10mi
Dew Point: 38°   Wind: 3mph
Humidity: 57%   Direction: NA
Pressure: 30.22"   Gusts: NA
Location:  34.1179°N, 81.0612°W
Report Text: KCUB 211753Z AUTO VRB03KT 10SM CLR 12/03 A3022 RMK AO2 SLP232 T01170033 10122 20061 58025
Loading
Personal Weather Stations






























Interactive Weather Map New forecast layout! Learn more

10-Day Weather Forecast

Advertisements
Track Severe Weather on mobile